CheckWX is a tool to help pilots better visualize weather data.  It is not intended as a substitute for an official pre-flight weather briefing.

07:26:26 UTC

KCSV TAF
Crossville Memorial-Whitson Field Airport
Crossville, Tennessee, USA
KCSV 150520Z 1506/1606 31004KT P6SM SKC FM151900 36009KT P6SM BKN250

Nov-15@
06:00 UTC

Nov-15 @ 06:00 UTC

Nov-15@
19:00 UTC

Nov-15 @ 19:00 UTC

KCSV 150520Z 1506/1606 31004KT P6SM SKC
Wind
  • 310° at 4 KTS
Cloud Levels
  • Clear skies

Nov-15@
19:00 UTC

Nov-15 @ 19:00 UTC

Nov-16@
06:00 UTC

Nov-16 @ 06:00 UTC

FM151900 36009KT P6SM BKN250

From

From Standard forecast or significant change

Wind
  • 360° at 9 KTS
Cloud Levels
  • Broken at 25,000' AGL